createdAt,value
2022-12-15T00:02:03.218Z,17.75
2022-12-15T00:04:48.111Z,13.63
2022-12-15T00:07:33.004Z,12.27
2022-12-15T00:10:17.714Z,8.00
2022-12-15T00:13:02.714Z,10.80
2022-12-15T00:15:47.656Z,11.43
2022-12-15T00:18:34.073Z,10.50
2022-12-15T00:21:19.049Z,9.85
2022-12-15T00:24:03.859Z,10.57
2022-12-15T00:26:48.911Z,10.60
2022-12-15T00:29:33.907Z,11.38
2022-12-15T00:32:19.377Z,11.33
2022-12-15T00:35:05.830Z,14.90
2022-12-15T00:37:50.807Z,14.52
2022-12-15T00:40:18.486Z,12.43
2022-12-15T00:42:47.825Z,13.02
2022-12-15T00:45:17.772Z,13.95
2022-12-15T00:47:44.390Z,11.75
2022-12-15T00:50:30.707Z,11.63
2022-12-15T00:53:15.508Z,8.40
2022-12-15T00:56:00.928Z,10.32
2022-12-15T00:58:45.765Z,12.73
2022-12-15T01:01:30.742Z,18.30
2022-12-15T01:04:16.023Z,16.13
2022-12-15T01:07:02.398Z,11.18
2022-12-15T01:09:47.227Z,16.15
2022-12-15T01:12:32.704Z,17.15
2022-12-15T01:15:17.526Z,14.70
2022-12-15T01:18:02.428Z,15.05
2022-12-15T01:20:34.681Z,13.40
2022-12-15T01:23:03.713Z,12.15
2022-12-15T01:25:31.333Z,14.20
2022-12-15T01:27:58.990Z,13.43
2022-12-15T01:30:27.778Z,14.30
2022-12-15T01:32:55.401Z,12.98
2022-12-15T01:35:23.286Z,12.15
2022-12-15T01:37:50.930Z,10.68
2022-12-15T01:40:38.208Z,11.02
2022-12-15T01:43:10.669Z,8.85
2022-12-15T01:45:49.657Z,10.57
2022-12-15T01:48:20.720Z,11.93
2022-12-15T01:50:59.561Z,9.63
2022-12-15T01:53:28.745Z,9.43
2022-12-15T01:55:58.063Z,12.32
2022-12-15T01:58:26.064Z,10.07
2022-12-15T02:00:53.900Z,9.60
2022-12-15T02:03:21.779Z,11.00
2022-12-15T02:05:49.454Z,9.60
2022-12-15T02:08:17.178Z,10.73
2022-12-15T02:10:53.722Z,9.95
2022-12-15T02:13:28.157Z,12.95
2022-12-15T02:15:58.370Z,9.90
2022-12-15T02:18:29.541Z,10.32
2022-12-15T02:20:59.432Z,10.82
2022-12-15T02:23:54.123Z,9.40
2022-12-15T02:26:40.587Z,11.48
2022-12-15T02:29:14.981Z,10.93
2022-12-15T02:31:52.504Z,11.23
2022-12-15T02:34:24.047Z,10.95
2022-12-15T02:36:55.462Z,12.15
2022-12-15T02:39:24.282Z,10.50
2022-12-15T02:41:53.013Z,10.15
2022-12-15T02:44:23.638Z,9.82
2022-12-15T02:47:00.538Z,11.60
2022-12-15T02:49:32.402Z,11.90
2022-12-15T02:52:06.939Z,10.80
2022-12-15T02:54:41.085Z,10.63
2022-12-15T02:57:19.524Z,12.50
2022-12-15T02:59:55.780Z,13.40
2022-12-15T03:02:25.748Z,12.02
2022-12-15T03:04:53.613Z,10.43
2022-12-15T03:07:21.247Z,10.13
2022-12-15T03:09:48.998Z,10.43
2022-12-15T03:12:16.732Z,11.23
2022-12-15T03:14:44.326Z,12.23
2022-12-15T03:17:11.963Z,9.55
2022-12-15T03:19:40.938Z,9.18
2022-12-15T03:22:08.583Z,12.27
2022-12-15T03:24:36.334Z,10.63
2022-12-15T03:27:04.365Z,11.73
2022-12-15T03:29:32.081Z,11.68
2022-12-15T03:31:59.848Z,12.35
2022-12-15T03:34:27.480Z,11.98
2022-12-15T03:36:56.508Z,11.57
2022-12-15T03:39:24.165Z,11.00
2022-12-15T03:41:51.808Z,12.07
2022-12-15T03:44:19.483Z,10.98
2022-12-15T03:46:47.455Z,10.57
2022-12-15T03:49:15.119Z,11.52
2022-12-15T03:51:43.015Z,11.68
2022-12-15T03:54:12.699Z,11.55
2022-12-15T03:56:40.641Z,10.85
2022-12-15T03:59:08.252Z,20.63
2022-12-15T04:01:36.863Z,15.55
2022-12-15T04:04:04.868Z,10.88
2022-12-15T04:06:32.662Z,11.07
2022-12-15T04:09:00.290Z,11.82
2022-12-15T04:11:29.269Z,10.23
2022-12-15T04:13:56.904Z,11.52
2022-12-15T04:16:24.579Z,14.57
2022-12-15T04:19:12.241Z,10.13
2022-12-15T04:21:39.874Z,9.45
2022-12-15T04:24:24.998Z,9.20
2022-12-15T04:27:11.752Z,11.10
2022-12-15T04:29:56.762Z,10.05
2022-12-15T04:32:43.405Z,12.93
2022-12-15T04:35:29.259Z,12.40
2022-12-15T04:40:59.287Z,10.80
2022-12-15T04:43:46.153Z,15.30
2022-12-15T04:46:31.295Z,12.38
2022-12-15T04:49:16.453Z,12.70
2022-12-15T04:52:01.605Z,15.27
2022-12-15T04:54:55.583Z,13.02
2022-12-15T04:57:40.484Z,13.77
2022-12-15T05:00:27.688Z,13.57
2022-12-15T05:03:18.112Z,13.70
2022-12-15T05:06:03.638Z,14.68
2022-12-15T05:08:50.151Z,12.83
2022-12-15T05:11:35.472Z,13.70
2022-12-15T05:14:20.416Z,15.25
2022-12-15T05:17:06.929Z,15.97
2022-12-15T05:19:52.035Z,15.77
2022-12-15T05:22:37.209Z,14.63
2022-12-15T05:25:22.609Z,14.07
2022-12-15T05:28:07.529Z,12.00
2022-12-15T05:30:52.506Z,13.70
2022-12-15T05:33:21.591Z,11.83
2022-12-15T05:35:50.010Z,14.32
2022-12-15T05:38:18.525Z,13.50
2022-12-15T05:40:46.223Z,15.65
2022-12-15T05:43:13.912Z,14.18
2022-12-15T05:45:41.599Z,14.52
2022-12-15T05:48:09.211Z,13.77
2022-12-15T05:50:38.254Z,15.07
2022-12-15T05:53:05.882Z,16.10
2022-12-15T05:55:33.571Z,16.40
2022-12-15T05:58:01.404Z,14.70
2022-12-15T06:00:29.087Z,17.48
2022-12-15T06:02:56.897Z,14.63
2022-12-15T06:05:24.675Z,15.27
2022-12-15T06:07:53.659Z,14.10
2022-12-15T06:10:21.528Z,16.17
2022-12-15T06:12:49.257Z,15.43
2022-12-15T06:15:17.195Z,24.65
2022-12-15T06:17:44.827Z,15.40
2022-12-15T06:20:17.407Z,18.02
2022-12-15T06:22:49.755Z,17.92
2022-12-15T06:25:19.250Z,15.70
2022-12-15T06:27:46.982Z,16.63
2022-12-15T06:30:16.248Z,15.05
2022-12-15T06:32:43.845Z,15.10
2022-12-15T06:35:11.641Z,15.32
2022-12-15T06:37:39.569Z,17.10
2022-12-15T06:40:07.858Z,15.30
2022-12-15T06:42:37.036Z,16.88
2022-12-15T06:45:05.227Z,16.48
2022-12-15T06:47:32.844Z,16.75
2022-12-15T06:50:00.455Z,17.08
2022-12-15T06:52:28.343Z,16.48
2022-12-15T06:54:55.950Z,18.30
2022-12-15T06:57:23.612Z,17.20
2022-12-15T06:59:52.601Z,22.10
2022-12-15T07:02:26.855Z,27.52
2022-12-15T07:04:56.437Z,34.65
2022-12-15T07:07:24.105Z,28.23
2022-12-15T07:09:52.013Z,27.77
2022-12-15T07:12:19.704Z,28.48
2022-12-15T07:14:53.023Z,24.65
2022-12-15T07:17:22.459Z,19.20
2022-12-15T07:19:50.113Z,20.70
2022-12-15T07:22:17.744Z,18.48
2022-12-15T07:24:46.048Z,17.27
2022-12-15T07:27:13.762Z,17.88
2022-12-15T07:29:42.225Z,16.85
2022-12-15T07:32:10.210Z,17.48
2022-12-15T07:34:39.396Z,16.45
2022-12-15T07:37:07.075Z,17.00
2022-12-15T07:39:34.842Z,15.38
2022-12-15T07:42:02.482Z,14.85
2022-12-15T07:44:30.301Z,14.20
2022-12-15T07:46:57.905Z,15.88
2022-12-15T07:49:25.635Z,15.35
2022-12-15T07:51:58.531Z,16.38
2022-12-15T07:54:26.367Z,17.60
2022-12-15T07:56:54.008Z,15.77
2022-12-15T07:59:21.665Z,15.27
2022-12-15T08:01:49.615Z,13.98
2022-12-15T08:04:17.515Z,16.83
2022-12-15T08:06:45.389Z,18.67
2022-12-15T08:09:14.507Z,14.82
2022-12-15T08:11:43.364Z,17.38
2022-12-15T08:14:17.106Z,14.68
2022-12-15T08:16:45.671Z,15.70
2022-12-15T08:19:15.245Z,12.88
2022-12-15T08:21:43.514Z,15.40
2022-12-15T08:24:11.573Z,15.57
2022-12-15T08:26:41.104Z,16.15
2022-12-15T08:29:49.044Z,16.38
2022-12-15T08:31:57.347Z,14.90
2022-12-15T08:34:25.055Z,15.35
2022-12-15T08:36:52.676Z,15.25
2022-12-15T08:39:20.593Z,14.95
2022-12-15T08:41:49.592Z,15.30
2022-12-15T08:44:17.399Z,14.68
2022-12-15T08:46:45.073Z,16.35
2022-12-15T08:49:16.618Z,17.10
2022-12-15T08:51:50.358Z,16.63
2022-12-15T08:54:19.204Z,15.32
2022-12-15T08:56:46.988Z,15.55
2022-12-15T08:59:16.015Z,17.00
2022-12-15T09:01:43.918Z,15.30
2022-12-15T09:04:11.839Z,14.60
2022-12-15T09:06:39.595Z,17.67
2022-12-15T09:09:08.460Z,19.58
2022-12-15T09:11:36.310Z,20.15
2022-12-15T09:14:04.455Z,15.65
2022-12-15T09:16:33.454Z,17.75
2022-12-15T09:19:01.511Z,16.90
2022-12-15T09:21:30.497Z,17.60
2022-12-15T09:24:00.737Z,19.85
2022-12-15T09:26:29.392Z,16.58
2022-12-15T09:28:57.122Z,18.45
2022-12-15T09:31:26.012Z,16.67
2022-12-15T09:33:56.264Z,18.45
2022-12-15T09:36:24.808Z,18.48
2022-12-15T09:38:52.715Z,19.90
2022-12-15T09:41:23.772Z,20.50
2022-12-15T09:43:57.947Z,18.27
2022-12-15T09:46:29.265Z,18.75
2022-12-15T09:48:59.135Z,16.42
2022-12-15T09:51:30.663Z,18.40
2022-12-15T09:53:58.985Z,17.95
2022-12-15T09:56:30.579Z,18.58
2022-12-15T09:59:01.712Z,16.60
2022-12-15T10:01:33.501Z,16.50
2022-12-15T10:04:07.072Z,16.92
2022-12-15T10:06:38.365Z,19.83
2022-12-15T10:09:13.535Z,17.35
2022-12-15T10:11:45.268Z,20.27
2022-12-15T10:14:23.787Z,16.90
2022-12-15T10:16:54.816Z,17.27
2022-12-15T10:19:27.826Z,26.50
2022-12-15T10:21:57.508Z,18.52
2022-12-15T10:25:00.207Z,17.48
2022-12-15T10:27:19.964Z,18.58
2022-12-15T10:29:52.863Z,18.10
2022-12-15T10:32:21.636Z,18.08
2022-12-15T10:34:50.698Z,20.13
2022-12-15T10:37:19.496Z,17.52
2022-12-15T10:39:50.123Z,17.98
2022-12-15T10:42:21.031Z,19.58
2022-12-15T10:44:50.715Z,18.00
2022-12-15T10:47:20.525Z,21.05
2022-12-15T10:49:48.441Z,18.23
2022-12-15T10:52:20.466Z,19.60
2022-12-15T10:54:49.391Z,18.67
2022-12-15T10:57:18.762Z,21.02
2022-12-15T10:59:46.412Z,22.75
2022-12-15T11:02:36.650Z,31.50
2022-12-15T11:05:05.734Z,21.38
2022-12-15T11:07:36.720Z,23.73
2022-12-15T11:10:14.757Z,20.80
2022-12-15T11:13:02.426Z,20.25
2022-12-15T11:15:40.527Z,21.65
2022-12-15T11:18:12.814Z,18.25
2022-12-15T11:20:43.336Z,18.63
2022-12-15T11:23:16.143Z,20.55
2022-12-15T11:25:46.340Z,22.15
2022-12-15T11:28:16.969Z,19.85
2022-12-15T11:30:46.942Z,22.17
2022-12-15T11:33:14.728Z,20.17
2022-12-15T11:35:50.246Z,20.75
2022-12-15T11:40:46.711Z,19.10
2022-12-15T11:43:45.465Z,20.65
2022-12-15T11:46:22.708Z,22.38
2022-12-15T11:48:58.133Z,22.05
2022-12-15T11:51:40.881Z,21.15
2022-12-15T11:54:14.770Z,22.33
2022-12-15T11:56:46.518Z,22.23
2022-12-15T11:59:28.387Z,21.73
2022-12-15T12:02:05.289Z,23.33
2022-12-15T12:04:39.040Z,25.08
2022-12-15T12:07:09.669Z,19.55
2022-12-15T12:09:38.558Z,20.85
2022-12-15T12:12:13.545Z,20.55
2022-12-15T12:14:50.639Z,19.73
2022-12-15T12:17:22.277Z,19.88
2022-12-15T12:19:52.120Z,20.20
2022-12-15T12:22:22.774Z,25.13
2022-12-15T12:24:52.322Z,22.38
2022-12-15T12:27:25.673Z,20.00
2022-12-15T12:29:54.996Z,21.27
2022-12-15T12:32:30.022Z,20.27
2022-12-15T12:37:52.292Z,20.80
2022-12-15T12:40:23.610Z,21.90
2022-12-15T12:42:55.039Z,20.48
2022-12-15T12:45:24.055Z,24.00
2022-12-15T12:47:53.326Z,24.65
2022-12-15T12:50:22.275Z,22.35
2022-12-15T12:52:51.125Z,20.02
2022-12-15T12:55:26.179Z,20.08
2022-12-15T12:57:55.802Z,20.10
2022-12-15T13:00:24.801Z,19.40
2022-12-15T13:03:10.206Z,17.17
2022-12-15T13:05:38.722Z,17.25
2022-12-15T13:08:25.014Z,19.10
2022-12-15T13:10:54.199Z,23.55
2022-12-15T13:13:47.454Z,20.80
2022-12-15T13:16:20.454Z,19.17
2022-12-15T13:19:03.533Z,15.45
2022-12-15T13:22:01.466Z,13.73
2022-12-15T13:24:32.359Z,12.45
2022-12-15T13:27:11.127Z,13.45
2022-12-15T13:29:55.084Z,12.80
2022-12-15T13:32:27.018Z,11.15
2022-12-15T13:34:54.765Z,11.40
2022-12-15T13:37:37.225Z,12.55
2022-12-15T13:40:25.599Z,14.48
2022-12-15T13:42:58.814Z,12.38
2022-12-15T13:45:36.738Z,12.00
2022-12-15T13:48:08.991Z,12.38
2022-12-15T13:50:40.479Z,12.27
2022-12-15T13:56:05.559Z,13.90
2022-12-15T13:58:39.190Z,12.40
2022-12-15T14:01:19.432Z,14.05
2022-12-15T14:03:57.580Z,13.00
2022-12-15T14:06:25.233Z,12.10
2022-12-15T14:08:53.909Z,13.32
2022-12-15T14:14:17.376Z,13.38
2022-12-15T14:16:46.639Z,13.68
2022-12-15T14:19:17.773Z,12.02
2022-12-15T14:21:52.263Z,12.77
2022-12-15T14:24:42.774Z,13.48
2022-12-15T14:27:10.435Z,11.43
2022-12-15T14:29:38.116Z,13.52
2022-12-15T14:32:07.466Z,14.23
2022-12-15T14:34:37.105Z,15.20
2022-12-15T14:37:08.540Z,15.05
2022-12-15T14:39:37.571Z,12.65
2022-12-15T14:42:07.487Z,14.23
2022-12-15T14:44:39.188Z,13.18
2022-12-15T14:47:15.290Z,12.27
2022-12-15T14:49:45.214Z,14.40
2022-12-15T14:52:19.089Z,14.52
2022-12-15T14:54:52.069Z,15.13
2022-12-15T14:57:22.582Z,13.88
2022-12-15T14:59:51.504Z,16.33
2022-12-15T15:02:24.892Z,15.70
2022-12-15T15:03:14.145Z,12.02
2022-12-15T15:04:57.844Z,15.85
2022-12-15T15:07:25.543Z,15.52
2022-12-15T15:09:54.196Z,15.13
2022-12-15T15:12:23.019Z,14.45
2022-12-15T15:14:52.919Z,16.23
2022-12-15T15:17:26.831Z,16.30
2022-12-15T15:19:55.638Z,14.68
2022-12-15T15:22:36.592Z,16.75
2022-12-15T15:25:25.308Z,15.95
2022-12-15T15:27:53.150Z,15.82
2022-12-15T15:30:21.884Z,14.65
2022-12-15T15:32:55.936Z,17.45
2022-12-15T15:35:24.397Z,40.03
2022-12-15T15:37:52.792Z,83.28
2022-12-15T15:40:20.427Z,28.20
2022-12-15T15:42:49.086Z,24.45
2022-12-15T15:45:16.816Z,28.77
2022-12-15T15:47:48.213Z,28.58
2022-12-15T15:50:18.452Z,20.48
2022-12-15T15:52:46.297Z,18.70
2022-12-15T15:55:15.259Z,18.20
2022-12-15T15:57:43.222Z,21.02
2022-12-15T16:00:15.778Z,20.63
2022-12-15T16:02:44.130Z,20.27
2022-12-15T16:05:11.948Z,20.52
2022-12-15T16:07:41.958Z,19.83
2022-12-15T16:10:13.629Z,19.88
2022-12-15T16:12:43.221Z,21.75
2022-12-15T16:15:14.400Z,21.27
2022-12-15T16:17:42.055Z,22.13
2022-12-15T16:20:10.749Z,23.42
2022-12-15T16:22:38.383Z,20.05
2022-12-15T16:25:13.202Z,19.95
2022-12-15T16:27:40.844Z,20.63
2022-12-15T16:30:15.721Z,17.50
2022-12-15T16:32:43.885Z,17.95
2022-12-15T16:35:11.629Z,16.95
2022-12-15T16:37:40.137Z,18.92
2022-12-15T16:40:16.512Z,17.85
2022-12-15T16:42:45.173Z,19.63
2022-12-15T16:45:18.244Z,16.95
2022-12-15T16:47:46.216Z,18.30
2022-12-15T16:50:15.154Z,19.10
2022-12-15T16:52:43.299Z,20.08
2022-12-15T16:55:17.516Z,16.75
2022-12-15T16:57:46.511Z,18.60
2022-12-15T17:00:19.010Z,20.42
2022-12-15T17:02:46.945Z,17.48
2022-12-15T17:05:15.315Z,18.65
2022-12-15T17:07:43.541Z,18.70
2022-12-15T17:10:18.341Z,18.08
2022-12-15T17:12:47.644Z,18.05
2022-12-15T17:15:19.618Z,20.70
2022-12-15T17:17:47.284Z,16.83
2022-12-15T17:20:29.017Z,18.17
2022-12-15T17:22:58.885Z,20.35
2022-12-15T17:26:00.756Z,19.10
2022-12-15T17:28:17.912Z,18.13
2022-12-15T17:30:45.818Z,18.83
2022-12-15T17:33:19.140Z,18.23
2022-12-15T17:35:47.232Z,18.13
2022-12-15T17:38:16.419Z,20.33
2022-12-15T17:40:44.044Z,18.88
2022-12-15T17:43:12.888Z,19.50
2022-12-15T17:45:42.047Z,18.33
2022-12-15T17:48:09.735Z,19.10
2022-12-15T17:50:37.745Z,20.20
2022-12-15T17:53:06.429Z,20.60
2022-12-15T17:55:35.436Z,19.33
2022-12-15T17:58:03.783Z,19.45
2022-12-15T18:00:32.951Z,19.00
2022-12-15T18:03:02.196Z,21.38
2022-12-15T18:05:31.229Z,19.98
2022-12-15T18:07:59.715Z,19.95
2022-12-15T18:10:29.940Z,21.05
2022-12-15T18:12:57.587Z,20.95
2022-12-15T18:15:27.008Z,18.60
2022-12-15T18:17:54.760Z,21.02
2022-12-15T18:20:23.980Z,19.40
2022-12-15T18:22:52.200Z,21.83
2022-12-15T18:25:21.413Z,18.45
2022-12-15T18:27:49.548Z,22.65
2022-12-15T18:30:18.874Z,22.23
2022-12-15T18:32:47.040Z,23.05
2022-12-15T18:35:22.652Z,20.05
2022-12-15T18:37:52.737Z,22.05
2022-12-15T18:40:21.979Z,17.15
2022-12-15T18:42:50.029Z,17.27
2022-12-15T18:45:22.481Z,18.73
2022-12-15T18:47:50.272Z,16.38
2022-12-15T18:50:19.794Z,18.77
2022-12-15T18:52:48.648Z,18.45
2022-12-15T18:55:19.535Z,19.52
2022-12-15T18:57:47.250Z,19.13
2022-12-15T19:00:19.215Z,19.58
2022-12-15T19:02:47.688Z,21.63
2022-12-15T19:05:27.714Z,17.73
2022-12-15T19:07:57.571Z,20.77
2022-12-15T19:10:27.812Z,17.92
2022-12-15T19:12:58.686Z,17.70
2022-12-15T19:15:27.051Z,17.77
2022-12-15T19:18:11.986Z,18.45
2022-12-15T19:20:57.407Z,18.88
2022-12-15T19:23:25.200Z,18.30
2022-12-15T19:25:54.570Z,18.65
2022-12-15T19:28:23.112Z,19.67
2022-12-15T19:30:52.048Z,21.45
2022-12-15T19:33:20.361Z,19.60
2022-12-15T19:35:50.316Z,19.13
2022-12-15T19:38:25.425Z,19.90
2022-12-15T19:40:55.092Z,19.45
2022-12-15T19:43:23.205Z,18.83
2022-12-15T19:45:52.024Z,25.38
2022-12-15T19:48:23.874Z,23.95
2022-12-15T19:50:52.479Z,20.33
2022-12-15T19:53:25.648Z,23.45
2022-12-15T19:55:55.662Z,25.13
2022-12-15T19:58:28.629Z,25.23
2022-12-15T20:00:57.576Z,20.83
2022-12-15T20:03:25.705Z,17.08
2022-12-15T20:05:54.496Z,17.23
2022-12-15T20:08:24.143Z,16.00
2022-12-15T20:10:53.881Z,19.77
2022-12-15T20:13:23.547Z,17.83
2022-12-15T20:15:51.286Z,17.65
2022-12-15T20:18:19.284Z,17.67
2022-12-15T20:20:48.031Z,18.52
2022-12-15T20:23:18.102Z,19.05
2022-12-15T20:25:45.934Z,17.65
2022-12-15T20:28:17.742Z,24.50
2022-12-15T20:30:47.147Z,30.40
2022-12-15T20:33:15.138Z,19.80
2022-12-15T20:35:43.364Z,18.42
2022-12-15T20:38:18.690Z,15.90
2022-12-15T20:40:46.335Z,16.88
2022-12-15T20:43:15.567Z,17.70
2022-12-15T20:45:43.253Z,25.17
2022-12-15T20:48:13.208Z,28.20
2022-12-15T20:50:42.835Z,28.33
2022-12-15T20:53:14.804Z,22.85
2022-12-15T20:55:42.486Z,27.63
2022-12-15T20:58:10.185Z,21.67
2022-12-15T21:00:37.971Z,17.25
2022-12-15T21:03:18.330Z,16.27
2022-12-15T21:05:46.056Z,13.73
2022-12-15T21:08:15.753Z,14.32
2022-12-15T21:10:43.456Z,24.27
2022-12-15T21:13:14.515Z,24.80
2022-12-15T21:15:42.313Z,26.88
2022-12-15T21:18:57.150Z,29.65
2022-12-15T21:21:01.311Z,23.42
2022-12-15T21:23:29.860Z,28.98
2022-12-15T21:25:58.298Z,23.45
2022-12-15T21:28:26.150Z,24.30
2022-12-15T21:30:54.237Z,23.35
2022-12-15T21:33:21.923Z,17.60
2022-12-15T21:35:49.906Z,15.02
2022-12-15T21:38:27.018Z,17.40
2022-12-15T21:40:59.584Z,21.95
2022-12-15T21:43:28.945Z,18.63
2022-12-15T21:45:56.685Z,17.23
2022-12-15T21:48:42.194Z,22.77
2022-12-15T21:51:13.414Z,20.10
2022-12-15T21:53:43.084Z,18.83
2022-12-15T21:56:14.897Z,20.02
2022-12-15T21:58:42.580Z,21.02
2022-12-15T22:01:13.179Z,22.08
2022-12-15T22:03:41.013Z,22.88
2022-12-15T22:06:14.702Z,22.45
2022-12-15T22:08:43.749Z,22.33
2022-12-15T22:11:17.416Z,23.25
2022-12-15T22:13:45.424Z,21.17
2022-12-15T22:16:13.153Z,18.95
2022-12-15T22:18:41.037Z,18.58
2022-12-15T22:21:08.879Z,19.52
2022-12-15T22:23:36.580Z,18.95
2022-12-15T22:26:05.568Z,17.58
2022-12-15T22:28:34.086Z,18.17
2022-12-15T22:31:02.609Z,18.50
2022-12-15T22:33:31.672Z,18.38
2022-12-15T22:35:59.520Z,17.98
2022-12-15T22:38:27.117Z,16.67
2022-12-15T22:40:56.336Z,21.38
2022-12-15T22:43:27.972Z,19.45
2022-12-15T22:45:56.471Z,20.42
2022-12-15T22:48:25.436Z,19.23
2022-12-15T22:50:53.117Z,17.65
2022-12-15T22:53:22.932Z,18.40
2022-12-15T22:55:51.001Z,17.80
2022-12-15T22:58:25.806Z,19.88
2022-12-15T23:00:56.290Z,18.30
2022-12-15T23:03:24.238Z,19.30
2022-12-15T23:05:52.023Z,17.88
2022-12-15T23:08:19.716Z,20.25
2022-12-15T23:11:05.234Z,20.52
2022-12-15T23:13:33.245Z,19.27
2022-12-15T23:16:21.545Z,20.35
2022-12-15T23:18:50.203Z,21.83
2022-12-15T23:21:19.979Z,21.45
2022-12-15T23:23:47.747Z,24.63
2022-12-15T23:26:16.307Z,21.95
2022-12-15T23:28:44.384Z,21.63
2022-12-15T23:31:13.687Z,24.48
2022-12-15T23:33:41.694Z,20.88
2022-12-15T23:36:10.330Z,26.48
2022-12-15T23:38:37.984Z,21.23
2022-12-15T23:41:05.745Z,21.75
2022-12-15T23:43:34.364Z,21.60
2022-12-15T23:46:03.233Z,21.65
2022-12-15T23:48:32.863Z,25.75
2022-12-15T23:51:04.637Z,19.33
2022-12-15T23:53:33.223Z,23.58
2022-12-15T23:56:08.312Z,22.08
2022-12-15T23:58:35.972Z,22.98
